KINL

Falls International-Einarson Field Airport

International Falls, Minnesota, USA
METAR KINL 231614Z AUTO 35005KT 2SM -SN BR BKN010 BKN028 OVC042 M06/M08 A3006 RMK AO2 P0001 T10611083
Observed Flight Rules
Feb-23 @ 16:14 UTC (25 minutes ago) Instrument Flight Rules
Wind Visibility Clouds Conditions
350° at 5 knots 2 miles
  • Broken at 1,000' AGL
  • Broken at 2,800' AGL
  • Overcast at 4,200' AGL
  • Light Snow
  • Mist
Temperatures Readings Precipitation
Current -6°C / 21°F
Dewpoint -8°C / 18°F
Humidity 86%
Altimeter 30.06" Hg
Pressure 1018 hPa
Elevation 360
Current Rain 0.01
METAR KINL 231614Z AUTO 35005KT 2SM -SN BR BKN010 BKN028 OVC042 M06/M08 A3006 RMK AO2 P0001 T10611083
Observed Flight Rules
Feb-23 @ 16:14 UTC
(25 minutes ago)
IFR
Wind Visibility
350° at 5 knots 2 miles
Clouds
  • Broken at 1,000' AGL
  • Broken at 2,800' AGL
  • Overcast at 4,200' AGL
Conditions
  • Light Snow
  • Mist
Temperature Dewpoint
-6°C / 21°F -8°C / 18°F
Humidity Altimeter Pressure
86% 30.06" Hg 1018 hPa
Current Rain
0.01